Time,TemperatureF,DewpointF,PressureIn,WindDirection,WindDirectionDegrees,WindSpeedMPH,WindSpeedGustMPH,Humidity,HourlyPrecipIn,Conditions,Clouds,dailyrainin,SoftwareType,DateUTC
2013-11-02 00:02:00,59.7,58.9,29.66,NW,311,4.8,7.0,97,0.00,,CLR,0.00,VWS V14.01,2013-11-02 04:02:00,
2013-11-02 00:04:00,59.6,58.8,29.66,WSW,245,4.8,5.4,97,0.00,,CLR,0.00,VWS V14.01,2013-11-02 04:04:00,
2013-11-02 00:06:00,59.6,58.8,29.66,West,271,4.4,6.5,97,0.00,,CLR,0.00,VWS V14.01,2013-11-02 04:06:00,
2013-11-02 00:12:00,59.5,58.8,29.66,WNW,297,4.4,8.2,98,0.00,,CLR,0.00,VWS V14.01,2013-11-02 04:12:00,
2013-11-02 00:16:00,59.3,58.7,29.66,WSW,240,2.5,5.0,98,0.00,,CLR,0.00,VWS V14.01,2013-11-02 04:16:00,
2013-11-02 00:22:00,59.0,58.5,29.66,WSW,245,3.1,3.2,98,0.00,,CLR,0.00,VWS V14.01,2013-11-02 04:22:00,
2013-11-02 00:26:00,59.3,58.6,29.66,WNW,298,2.5,4.6,98,0.00,,CLR,0.00,VWS V14.01,2013-11-02 04:26:00,
2013-11-02 00:32:00,59.2,58.6,29.66,WSW,240,2.5,2.5,98,0.00,,CLR,0.00,VWS V14.01,2013-11-02 04:32:00,
2013-11-02 00:38:00,58.8,58.4,29.66,West,277,2.5,2.5,99,0.00,,CLR,0.00,VWS V14.01,2013-11-02 04:38:00,
2013-11-02 00:44:00,58.6,58.3,29.66,North,359,2.5,4.1,99,0.00,,CLR,0.00,VWS V14.01,2013-11-02 04:44:00,
2013-11-02 00:50:00,58.6,58.3,29.66,WNW,285,2.5,2.5,99,0.00,,CLR,0.00,VWS V14.01,2013-11-02 04:50:00,
2013-11-02 00:56:00,58.4,58.3,29.66,WNW,285,2.5,2.5,100,0.00,,CLR,0.00,VWS V14.01,2013-11-02 04:56:00,
2013-11-02 01:02:00,58.5,58.3,29.66,WNW,285,2.5,2.5,99,0.00,,CLR,0.00,VWS V14.01,2013-11-02 05:02:00,
2013-11-02 01:08:00,58.1,58.1,29.66,WNW,285,2.5,2.5,100,0.00,,CLR,0.00,VWS V14.01,2013-11-02 05:08:00,
2013-11-02 01:14:00,58.0,58.0,29.66,WSW,257,2.5,2.5,100,0.00,,CLR,0.00,VWS V14.01,2013-11-02 05:14:00,
2013-11-02 01:20:00,57.9,57.9,29.64,WSW,257,2.5,2.5,100,0.00,,CLR,0.00,VWS V14.01,2013-11-02 05:20:00,
2013-11-02 01:26:00,57.4,57.4,29.64,WSW,257,2.5,2.5,100,0.00,,CLR,0.00,VWS V14.01,2013-11-02 05:26:00,
2013-11-02 01:32:00,56.8,56.8,29.63,WSW,257,2.5,2.5,100,0.00,,CLR,0.00,VWS V14.01,2013-11-02 05:32:00,
2013-11-02 01:38:00,56.4,56.4,29.63,WSW,257,2.5,2.5,100,0.00,,CLR,0.00,VWS V14.01,2013-11-02 05:38:00,
2013-11-02 01:44:00,56.3,56.3,29.64,WSW,257,2.5,2.5,100,0.00,,CLR,0.00,VWS V14.01,2013-11-02 05:44:00,
2013-11-02 01:50:00,56.3,56.3,29.66,WSW,257,2.5,2.5,100,0.00,,CLR,0.00,VWS V14.01,2013-11-02 05:50:00,
2013-11-02 01:56:00,56.0,56.0,29.65,WSW,257,2.5,2.5,100,0.00,,CLR,0.00,VWS V14.01,2013-11-02 05:56:00,
2013-11-02 02:02:00,55.8,55.8,29.67,WSW,257,2.5,2.5,100,0.00,,FEW150,0.00,VWS V14.01,2013-11-02 06:02:00,
2013-11-02 02:08:00,55.9,55.9,29.67,North,7,2.5,2.5,100,0.00,,FEW150,0.00,VWS V14.01,2013-11-02 06:08:00,
2013-11-02 02:14:00,55.9,55.9,29.68,SW,222,2.5,2.5,100,0.00,,FEW150,0.00,VWS V14.01,2013-11-02 06:14:00,
2013-11-02 02:20:00,56.0,56.0,29.69,SW,222,2.5,2.5,100,0.00,,FEW150,0.00,VWS V14.01,2013-11-02 06:20:00,
2013-11-02 02:26:00,56.1,56.1,29.69,SW,222,2.5,2.5,100,0.00,,FEW150,0.00,VWS V14.01,2013-11-02 06:26:00,
2013-11-02 02:32:00,56.0,56.0,29.69,SW,222,2.5,2.5,100,0.00,,FEW150,0.00,VWS V14.01,2013-11-02 06:32:00,
2013-11-02 02:38:00,55.9,55.9,29.68,SW,222,2.5,2.5,100,0.00,,FEW150,0.00,VWS V14.01,2013-11-02 06:38:00,
2013-11-02 02:44:00,55.8,55.8,29.69,SW,222,2.5,2.5,100,0.00,,FEW150,0.00,VWS V14.01,2013-11-02 06:44:00,
2013-11-02 02:50:00,55.3,55.3,29.68,SW,222,2.5,2.5,100,0.00,,FEW150,0.00,VWS V14.01,2013-11-02 06:50:00,
2013-11-02 02:56:00,55.1,55.1,29.67,SW,222,2.5,2.5,100,0.00,,FEW150,0.00,VWS V14.01,2013-11-02 06:56:00,
2013-11-02 03:02:00,54.7,54.7,29.67,SW,222,2.5,2.5,100,0.00,,FEW150,0.00,VWS V14.01,2013-11-02 07:02:00,
2013-11-02 03:08:00,54.2,54.2,29.66,SW,222,2.5,2.5,100,0.00,,FEW150,0.00,VWS V14.01,2013-11-02 07:08:00,
2013-11-02 03:14:00,53.8,53.8,29.66,SW,222,2.5,2.5,100,0.00,,FEW150,0.00,VWS V14.01,2013-11-02 07:14:00,
2013-11-02 03:20:00,53.5,53.5,29.67,SW,222,2.5,2.5,100,0.00,,FEW150,0.00,VWS V14.01,2013-11-02 07:20:00,
2013-11-02 03:26:00,53.3,53.3,29.68,SW,222,2.5,2.5,100,0.00,,FEW150,0.00,VWS V14.01,2013-11-02 07:26:00,
2013-11-02 03:32:00,53.4,53.4,29.68,SW,222,2.5,2.5,100,0.00,,FEW150,0.00,VWS V14.01,2013-11-02 07:32:00,
2013-11-02 03:38:00,53.1,53.1,29.68,SW,222,2.5,2.5,100,0.00,,FEW150,0.00,VWS V14.01,2013-11-02 07:38:00,
2013-11-02 03:44:00,52.9,52.9,29.68,SW,222,2.5,2.5,100,0.00,,FEW150,0.00,VWS V14.01,2013-11-02 07:44:00,
2013-11-02 03:50:00,52.4,52.4,29.68,SW,222,2.5,2.5,100,0.00,,FEW150,0.00,VWS V14.01,2013-11-02 07:50:00,
2013-11-02 03:56:00,52.8,52.8,29.69,SW,222,2.5,2.5,100,0.00,,FEW150,0.00,VWS V14.01,2013-11-02 07:56:00,
2013-11-02 04:02:00,53.1,53.1,29.69,SW,222,2.5,2.5,100,0.00,,FEW150,0.00,VWS V14.01,2013-11-02 08:02:00,
2013-11-02 04:08:00,53.4,53.4,29.69,SW,222,2.5,2.5,100,0.00,,FEW150,0.00,VWS V14.01,2013-11-02 08:08:00,
2013-11-02 04:14:00,53.4,53.4,29.69,SW,222,2.5,2.5,100,0.00,,FEW150,0.00,VWS V14.01,2013-11-02 08:14:00,
2013-11-02 04:20:00,53.2,53.2,29.69,SW,222,2.5,2.5,100,0.00,,FEW150,0.00,VWS V14.01,2013-11-02 08:20:00,
2013-11-02 04:26:00,53.2,53.2,29.67,SW,222,2.5,2.5,100,0.00,,FEW150,0.00,VWS V14.01,2013-11-02 08:26:00,
2013-11-02 04:32:00,52.9,52.9,29.67,SW,222,2.5,2.5,100,0.00,,FEW150,0.00,VWS V14.01,2013-11-02 08:32:00,
2013-11-02 04:38:00,52.9,52.9,29.68,SW,222,2.5,2.5,100,0.00,,FEW150,0.00,VWS V14.01,2013-11-02 08:38:00,
2013-11-02 04:44:00,52.8,52.8,29.68,SW,222,2.5,2.5,100,0.00,,FEW150,0.00,VWS V14.01,2013-11-02 08:44:00,
2013-11-02 04:50:00,52.6,52.6,29.68,SW,222,2.5,2.5,100,0.00,,FEW150,0.00,VWS V14.01,2013-11-02 08:50:00,
2013-11-02 04:56:00,52.4,52.4,29.68,SW,222,2.5,2.5,100,0.00,,FEW150,0.00,VWS V14.01,2013-11-02 08:56:00,
2013-11-02 05:02:00,52.0,52.0,29.68,SW,222,2.5,2.5,100,0.00,,CLR,0.00,VWS V14.01,2013-11-02 09:02:00,
2013-11-02 05:08:00,51.8,51.8,29.69,SW,222,2.5,2.5,100,0.00,,CLR,0.00,VWS V14.01,2013-11-02 09:08:00,
2013-11-02 05:14:00,52.0,52.0,29.69,SW,222,2.5,2.5,100,0.00,,CLR,0.00,VWS V14.01,2013-11-02 09:14:00,
2013-11-02 05:20:00,52.1,52.1,29.68,SW,222,2.5,2.5,100,0.00,,CLR,0.00,VWS V14.01,2013-11-02 09:20:00,
2013-11-02 05:26:00,52.2,52.2,29.69,SW,222,2.5,2.5,100,0.00,,CLR,0.00,VWS V14.01,2013-11-02 09:26:00,
2013-11-02 05:32:00,52.4,52.4,29.69,SW,222,2.5,2.5,100,0.00,,CLR,0.00,VWS V14.01,2013-11-02 09:32:00,
2013-11-02 05:38:00,52.8,52.8,29.70,SW,222,2.5,2.5,100,0.00,,CLR,0.00,VWS V14.01,2013-11-02 09:38:00,
2013-11-02 05:44:00,53.0,53.0,29.70,SW,222,2.5,2.5,100,0.00,,CLR,0.00,VWS V14.01,2013-11-02 09:44:00,
2013-11-02 05:50:00,53.0,53.0,29.70,SW,222,2.5,2.5,100,0.00,,CLR,0.00,VWS V14.01,2013-11-02 09:50:00,
2013-11-02 05:56:00,52.9,52.9,29.69,SW,222,2.5,2.5,100,0.00,,CLR,0.00,VWS V14.01,2013-11-02 09:56:00,
2013-11-02 06:02:00,52.3,52.3,29.69,SW,222,2.5,2.5,100,0.00,,OVC110,0.00,VWS V14.01,2013-11-02 10:02:00,
2013-11-02 06:08:00,52.1,52.1,29.68,SW,222,2.5,2.5,100,0.00,,OVC110,0.00,VWS V14.01,2013-11-02 10:08:00,
2013-11-02 06:14:00,51.4,51.4,29.68,SW,222,2.5,2.5,100,0.00,,OVC110,0.00,VWS V14.01,2013-11-02 10:14:00,
2013-11-02 06:20:00,51.7,51.7,29.69,SW,222,2.5,2.5,100,0.00,,OVC110,0.00,VWS V14.01,2013-11-02 10:20:00,
2013-11-02 06:26:00,51.9,51.9,29.69,SW,222,2.5,2.5,100,0.00,,OVC110,0.00,VWS V14.01,2013-11-02 10:26:00,
2013-11-02 06:32:00,51.7,51.7,29.68,SW,222,2.5,2.5,100,0.00,,OVC110,0.00,VWS V14.01,2013-11-02 10:32:00,
2013-11-02 06:38:00,51.7,51.7,29.68,SW,222,2.5,2.5,100,0.00,,OVC110,0.00,VWS V14.01,2013-11-02 10:38:00,
2013-11-02 06:44:00,51.7,51.7,29.69,SW,222,2.5,2.5,100,0.00,,OVC110,0.00,VWS V14.01,2013-11-02 10:44:00,
2013-11-02 06:50:00,51.8,51.8,29.69,SW,222,2.5,2.5,100,0.00,,OVC110,0.00,VWS V14.01,2013-11-02 10:50:00,
2013-11-02 06:56:00,52.0,52.0,29.69,SW,222,2.5,2.5,100,0.00,,OVC110,0.00,VWS V14.01,2013-11-02 10:56:00,
2013-11-02 07:02:00,52.4,52.4,29.69,SW,222,2.5,2.5,100,0.00,,OVC090,0.00,VWS V14.01,2013-11-02 11:02:00,
2013-11-02 07:08:00,52.6,52.6,29.69,SW,222,2.5,2.5,100,0.00,,OVC090,0.00,VWS V14.01,2013-11-02 11:08:00,
2013-11-02 07:14:00,52.5,52.5,29.68,SW,222,2.5,2.5,100,0.00,,OVC090,0.00,VWS V14.01,2013-11-02 11:14:00,
2013-11-02 07:20:00,52.5,52.5,29.68,SW,222,2.5,2.5,100,0.00,,OVC090,0.00,VWS V14.01,2013-11-02 11:20:00,
2013-11-02 07:26:00,52.4,52.4,29.69,SW,222,2.5,2.5,100,0.00,,OVC090,0.00,VWS V14.01,2013-11-02 11:26:00,
2013-11-02 07:32:00,52.6,52.6,29.69,SW,222,2.5,2.5,100,0.00,,OVC090,0.00,VWS V14.01,2013-11-02 11:32:00,
2013-11-02 07:38:00,52.6,52.6,29.69,SW,222,2.5,2.5,100,0.00,,OVC090,0.00,VWS V14.01,2013-11-02 11:38:00,
2013-11-02 07:44:00,52.7,52.7,29.69,SW,222,2.5,2.5,100,0.00,,OVC090,0.00,VWS V14.01,2013-11-02 11:44:00,
2013-11-02 07:50:00,52.7,52.7,29.69,SW,222,2.5,2.5,100,0.00,,OVC090,0.00,VWS V14.01,2013-11-02 11:50:00,
2013-11-02 07:56:00,52.9,52.9,29.69,SW,222,2.5,2.5,100,0.00,,OVC090,0.00,VWS V14.01,2013-11-02 11:56:00,
2013-11-02 08:02:00,52.8,52.8,29.69,SW,222,2.5,2.5,100,0.00,,OVC100,0.00,VWS V14.01,2013-11-02 12:02:00,
2013-11-02 08:08:00,53.1,53.1,29.69,SW,222,2.5,2.5,100,0.00,,OVC100,0.00,VWS V14.01,2013-11-02 12:08:00,
2013-11-02 08:14:00,53.1,53.1,29.69,SW,222,2.5,2.5,100,0.00,,OVC100,0.00,VWS V14.01,2013-11-02 12:14:00,
2013-11-02 08:20:00,53.0,53.0,29.69,SW,222,2.5,2.5,100,0.00,,OVC100,0.00,VWS V14.01,2013-11-02 12:20:00,
2013-11-02 08:26:00,52.9,52.9,29.69,SW,222,2.5,2.5,100,0.00,,OVC100,0.00,VWS V14.01,2013-11-02 12:26:00,
2013-11-02 08:32:00,52.7,52.7,29.69,SW,222,2.5,2.5,100,0.00,,OVC100,0.00,VWS V14.01,2013-11-02 12:32:00,
2013-11-02 08:38:00,53.1,53.1,29.69,SW,222,2.5,2.5,100,0.00,,OVC100,0.00,VWS V14.01,2013-11-02 12:38:00,
2013-11-02 08:44:00,53.2,53.2,29.69,SW,222,2.5,2.5,100,0.00,,OVC100,0.00,VWS V14.01,2013-11-02 12:44:00,
2013-11-02 08:50:00,53.1,53.1,29.69,SW,222,2.5,2.5,100,0.00,,OVC100,0.00,VWS V14.01,2013-11-02 12:50:00,
2013-11-02 08:56:00,53.5,53.5,29.70,SW,222,2.5,2.5,100,0.00,,OVC100,0.00,VWS V14.01,2013-11-02 12:56:00,
2013-11-02 09:02:00,54.1,54.1,29.71,South,173,4.5,6.6,100,0.00,,BKN110,0.00,VWS V14.01,2013-11-02 13:02:00,
2013-11-02 09:08:00,54.4,54.4,29.70,SSE,165,2.5,2.5,100,0.00,,BKN110,0.00,VWS V14.01,2013-11-02 13:08:00,
2013-11-02 09:14:00,54.9,54.9,29.70,SSE,165,2.5,2.5,100,0.00,,BKN110,0.00,VWS V14.01,2013-11-02 13:14:00,
2013-11-02 09:20:00,55.2,55.2,29.69,WSW,238,2.5,3.7,100,0.00,,BKN110,0.00,VWS V14.01,2013-11-02 13:20:00,
2013-11-02 09:26:00,56.1,55.3,29.69,WSW,252,2.5,4.2,97,0.00,,BKN110,0.00,VWS V14.01,2013-11-02 13:26:00,
2013-11-02 09:32:00,56.4,53.9,29.69,WSW,252,2.5,2.9,91,0.00,,BKN110,0.00,VWS V14.01,2013-11-02 13:32:00,
2013-11-02 09:38:00,57.1,54.3,29.68,WSW,252,2.5,2.5,90,0.00,,BKN110,0.00,VWS V14.01,2013-11-02 13:38:00,
2013-11-02 09:44:00,57.0,52.9,29.68,WSW,252,2.5,2.5,86,0.00,,BKN110,0.00,VWS V14.01,2013-11-02 13:44:00,
2013-11-02 09:50:00,56.8,55.0,29.68,NNW,342,2.5,2.5,94,0.00,,BKN110,0.00,VWS V14.01,2013-11-02 13:50:00,
2013-11-02 09:56:00,57.0,55.3,29.67,NNW,342,2.5,2.5,94,0.00,,BKN110,0.00,VWS V14.01,2013-11-02 13:56:00,
2013-11-02 10:02:00,57.2,55.5,29.67,NNW,342,2.5,2.5,94,0.00,,SCT120,0.00,VWS V14.01,2013-11-02 14:02:00,
2013-11-02 10:08:00,57.3,55.1,29.67,NNW,342,2.5,2.5,92,0.00,,SCT120,0.00,VWS V14.01,2013-11-02 14:08:00,
2013-11-02 10:14:00,57.7,55.5,29.67,NNW,342,2.5,2.5,92,0.00,,SCT120,0.00,VWS V14.01,2013-11-02 14:14:00,
2013-11-02 10:20:00,58.0,56.1,29.68,NNW,342,2.5,2.5,93,0.00,,SCT120,0.00,VWS V14.01,2013-11-02 14:20:00,
2013-11-02 10:26:00,58.1,55.4,29.68,NNW,342,2.5,2.5,91,0.00,,SCT120,0.00,VWS V14.01,2013-11-02 14:26:00,
2013-11-02 10:32:00,58.2,55.4,29.68,NNW,342,2.5,2.5,90,0.00,,SCT120,0.00,VWS V14.01,2013-11-02 14:32:00,
2013-11-02 10:38:00,57.9,55.1,29.68,NNW,342,2.5,2.5,90,0.00,,SCT120,0.00,VWS V14.01,2013-11-02 14:38:00,
2013-11-02 10:44:00,58.6,54.9,29.68,NNW,342,2.5,2.5,87,0.00,,SCT120,0.00,VWS V14.01,2013-11-02 14:44:00,
2013-11-02 10:50:00,58.8,53.1,29.68,SE,143,4.7,5.5,81,0.00,,SCT120,0.00,VWS V14.01,2013-11-02 14:50:00,
2013-11-02 10:56:00,59.1,52.0,29.68,South,170,2.5,4.8,77,0.00,,SCT120,0.00,VWS V14.01,2013-11-02 14:56:00,
2013-11-02 11:02:00,59.4,50.3,29.68,ESE,108,2.5,2.5,72,0.00,,SCT120,0.00,VWS V14.01,2013-11-02 15:02:00,
2013-11-02 11:08:00,59.3,49.8,29.67,West,262,2.5,7.3,71,0.00,,SCT120,0.00,VWS V14.01,2013-11-02 15:08:00,
2013-11-02 11:14:00,59.9,50.8,29.66,SSE,163,4.8,5.4,72,0.00,,SCT120,0.00,VWS V14.01,2013-11-02 15:14:00,
2013-11-02 11:20:00,60.4,51.1,29.66,SSE,160,9.0,9.0,71,0.00,,SCT120,0.00,VWS V14.01,2013-11-02 15:20:00,
2013-11-02 11:26:00,60.1,51.2,29.66,SSE,153,3.9,8.0,72,0.00,,SCT120,0.00,VWS V14.01,2013-11-02 15:26:00,
2013-11-02 11:31:00,60.0,51.7,29.66,South,173,4.2,8.3,74,0.00,,SCT120,0.00,VWS V14.01,2013-11-02 15:31:00,
2013-11-02 11:38:00,59.8,52.1,29.66,SSE,150,5.2,8.3,76,0.00,,SCT120,0.00,VWS V14.01,2013-11-02 15:38:00,
2013-11-02 11:44:00,60.2,52.3,29.66,South,169,2.5,5.1,75,0.00,,SCT120,0.00,VWS V14.01,2013-11-02 15:44:00,
2013-11-02 11:50:00,61.0,51.5,29.65,South,169,3.9,5.6,71,0.00,,SCT120,0.00,VWS V14.01,2013-11-02 15:50:00,
2013-11-02 11:56:00,61.0,52.4,29.65,SSE,163,5.5,8.1,73,0.00,,SCT120,0.00,VWS V14.01,2013-11-02 15:56:00,
2013-11-02 12:02:00,61.8,50.8,29.65,NW,304,2.5,5.0,67,0.00,,SCT120,0.00,VWS V14.01,2013-11-02 16:02:00,
2013-11-02 12:08:00,62.8,49.8,29.65,West,259,3.8,6.9,62,0.00,,SCT120,0.00,VWS V14.01,2013-11-02 16:08:00,
2013-11-02 12:14:00,62.7,49.8,29.64,South,186,6.4,8.2,63,0.00,,SCT120,0.00,VWS V14.01,2013-11-02 16:14:00,
2013-11-02 12:20:00,62.5,49.0,29.65,NE,51,2.5,6.8,61,0.00,,SCT120,0.00,VWS V14.01,2013-11-02 16:20:00,
2013-11-02 12:26:00,62.5,47.8,29.65,West,259,2.5,3.7,58,0.00,,SCT120,0.00,VWS V14.01,2013-11-02 16:26:00,
2013-11-02 12:32:00,63.3,47.8,29.64,SE,138,4.6,8.3,57,0.00,,SCT120,0.00,VWS V14.01,2013-11-02 16:32:00,
2013-11-02 12:37:00,62.4,46.3,29.64,South,186,5.6,6.1,56,0.00,,SCT120,0.00,VWS V14.01,2013-11-02 16:37:00,
2013-11-02 12:44:00,61.9,51.4,29.62,SSW,194,4.2,8.8,68,0.00,,SCT120,0.00,VWS V14.01,2013-11-02 16:44:00,
2013-11-02 12:50:00,62.2,52.0,29.62,SSE,165,6.2,8.9,69,0.00,,SCT120,0.00,VWS V14.01,2013-11-02 16:50:00,
2013-11-02 12:56:00,61.9,53.0,29.62,SSE,156,5.4,8.5,72,0.00,,SCT120,0.00,VWS V14.01,2013-11-02 16:56:00,
2013-11-02 13:02:00,62.0,52.7,29.62,South,180,9.2,9.8,72,0.00,,FEW120,0.00,VWS V14.01,2013-11-02 17:02:00,
2013-11-02 13:07:00,62.6,52.2,29.62,SSE,159,7.2,11.0,69,0.00,,FEW120,0.00,VWS V14.01,2013-11-02 17:07:00,
2013-11-02 13:14:00,61.5,51.1,29.61,SSE,156,6.6,10.6,69,0.00,,FEW120,0.00,VWS V14.01,2013-11-02 17:14:00,
2013-11-02 13:20:00,61.3,51.8,29.61,SSE,162,2.5,6.2,71,0.00,,FEW120,0.00,VWS V14.01,2013-11-02 17:20:00,
2013-11-02 13:26:00,62.2,52.7,29.61,SSW,212,3.5,5.9,71,0.00,,FEW120,0.00,VWS V14.01,2013-11-02 17:26:00,
2013-11-02 13:32:00,62.0,53.4,29.63,SSW,210,5.3,6.9,73,0.00,,FEW120,0.00,VWS V14.01,2013-11-02 17:32:00,
2013-11-02 13:38:00,62.4,54.0,29.61,SSE,152,7.2,8.0,74,0.00,,FEW120,0.00,VWS V14.01,2013-11-02 17:38:00,
2013-11-02 13:44:00,61.9,52.9,29.62,SE,124,3.3,3.9,72,0.00,,FEW120,0.00,VWS V14.01,2013-11-02 17:44:00,
2013-11-02 13:50:00,61.5,53.2,29.62,SSE,155,6.8,8.9,74,0.00,,FEW120,0.00,VWS V14.01,2013-11-02 17:50:00,
2013-11-02 13:56:00,60.9,53.3,29.62,SSE,156,3.4,6.7,76,0.00,,FEW120,0.00,VWS V14.01,2013-11-02 17:56:00,
2013-11-02 14:02:00,61.2,53.5,29.62,SSW,207,4.2,6.3,76,0.00,,SCT150,0.00,VWS V14.01,2013-11-02 18:02:00,
2013-11-02 14:07:00,61.6,53.9,29.62,SSW,195,3.7,6.0,76,0.00,,SCT150,0.00,VWS V14.01,2013-11-02 18:07:00,
2013-11-02 14:13:00,61.9,54.0,29.62,SE,135,2.5,5.0,75,0.00,,SCT150,0.00,VWS V14.01,2013-11-02 18:13:00,
2013-11-02 14:20:00,61.6,53.5,29.62,South,183,3.9,6.1,75,0.00,,SCT150,0.00,VWS V14.01,2013-11-02 18:20:00,
2013-11-02 14:26:00,62.0,53.9,29.62,SSE,148,4.6,6.2,75,0.00,,SCT150,0.00,VWS V14.01,2013-11-02 18:26:00,
2013-11-02 14:32:00,62.4,54.0,29.62,East,89,2.5,4.6,74,0.00,,SCT150,0.00,VWS V14.01,2013-11-02 18:32:00,
2013-11-02 14:37:00,61.9,53.7,29.62,NNE,24,2.5,3.6,74,0.00,,SCT150,0.00,VWS V14.01,2013-11-02 18:37:00,
2013-11-02 14:43:00,61.9,53.7,29.61,SSE,153,5.3,5.6,74,0.00,,SCT150,0.00,VWS V14.01,2013-11-02 18:43:00,
2013-11-02 14:50:00,62.1,54.0,29.62,ESE,110,2.5,4.8,75,0.00,,SCT150,0.00,VWS V14.01,2013-11-02 18:50:00,
2013-11-02 14:56:00,62.0,53.6,29.61,East,100,3.4,5.7,74,0.00,,SCT150,0.00,VWS V14.01,2013-11-02 18:56:00,
2013-11-02 15:02:00,61.3,54.0,29.61,NE,42,2.5,4.0,77,0.00,,SCT220,0.00,VWS V14.01,2013-11-02 19:02:00,
2013-11-02 15:08:00,60.4,54.3,29.61,SE,141,4.1,7.7,80,0.00,,SCT220,0.00,VWS V14.01,2013-11-02 19:08:00,
2013-11-02 15:13:00,60.8,54.4,29.62,SE,143,2.5,2.5,79,0.00,,SCT220,0.00,VWS V14.01,2013-11-02 19:13:00,
2013-11-02 15:20:00,60.5,53.8,29.61,NE,53,2.5,2.5,79,0.00,,SCT220,0.00,VWS V14.01,2013-11-02 19:20:00,
2013-11-02 15:26:00,60.6,53.7,29.62,East,83,2.5,3.9,78,0.00,,SCT220,0.00,VWS V14.01,2013-11-02 19:26:00,
2013-11-02 15:32:00,60.5,52.9,29.62,NE,56,2.5,3.4,76,0.00,,SCT220,0.00,VWS V14.01,2013-11-02 19:32:00,
2013-11-02 15:38:00,60.3,52.5,29.62,NE,56,2.5,2.5,75,0.00,,SCT220,0.00,VWS V14.01,2013-11-02 19:38:00,
2013-11-02 15:43:00,59.8,52.7,29.62,NE,38,2.5,3.6,77,0.00,,SCT220,0.00,VWS V14.01,2013-11-02 19:43:00,
2013-11-02 15:49:00,59.6,52.8,29.62,ESE,114,3.1,5.2,78,0.00,,SCT220,0.00,VWS V14.01,2013-11-02 19:49:00,
2013-11-02 15:56:00,59.7,53.0,29.63,SE,146,5.2,6.7,78,0.00,,SCT220,0.00,VWS V14.01,2013-11-02 19:56:00,
2013-11-02 16:02:00,59.8,52.9,29.62,SSE,158,6.4,7.0,78,0.00,,BKN240,0.00,VWS V14.01,2013-11-02 20:02:00,
2013-11-02 16:08:00,59.7,52.6,29.61,SE,127,2.5,2.5,77,0.00,,BKN240,0.00,VWS V14.01,2013-11-02 20:08:00,
2013-11-02 16:13:00,59.9,53.2,29.62,SE,127,2.5,2.5,78,0.00,,BKN240,0.00,VWS V14.01,2013-11-02 20:13:00,
2013-11-02 16:19:00,59.3,52.9,29.62,SE,127,2.5,2.5,79,0.00,,BKN240,0.00,VWS V14.01,2013-11-02 20:19:00,
2013-11-02 16:26:00,58.9,52.9,29.62,SE,135,2.5,2.5,80,0.00,,BKN240,0.00,VWS V14.01,2013-11-02 20:26:00,
2013-11-02 16:32:00,58.8,53.2,29.62,SE,135,2.5,2.5,82,0.00,,BKN240,0.00,VWS V14.01,2013-11-02 20:32:00,
2013-11-02 16:38:00,58.4,53.4,29.62,SE,135,2.5,2.5,83,0.00,,BKN240,0.00,VWS V14.01,2013-11-02 20:38:00,
2013-11-02 16:44:00,58.4,53.7,29.62,SE,135,2.5,2.5,84,0.00,,BKN240,0.00,VWS V14.01,2013-11-02 20:44:00,
2013-11-02 16:50:00,58.1,53.1,29.62,SSE,167,4.9,6.3,83,0.00,,BKN240,0.00,VWS V14.01,2013-11-02 20:50:00,
2013-11-02 16:55:00,57.8,53.1,29.63,South,170,3.1,3.6,84,0.00,,BKN240,0.00,VWS V14.01,2013-11-02 20:55:00,
2013-11-02 17:02:00,57.2,52.7,29.63,SE,139,3.5,6.3,85,0.00,,BKN240,0.00,VWS V14.01,2013-11-02 21:02:00,
2013-11-02 17:08:00,56.9,53.4,29.62,SSE,166,4.1,5.2,88,0.00,,BKN240,0.00,VWS V14.01,2013-11-02 21:08:00,
2013-11-02 17:14:00,56.4,54.2,29.63,South,173,2.5,7.5,92,0.00,,BKN240,0.00,VWS V14.01,2013-11-02 21:14:00,
2013-11-02 17:19:00,56.2,54.7,29.64,South,169,2.5,2.5,94,0.00,,BKN240,0.00,VWS V14.01,2013-11-02 21:19:00,
2013-11-02 17:25:00,55.9,54.6,29.63,SSE,153,3.7,3.7,95,0.00,,BKN240,0.00,VWS V14.01,2013-11-02 21:25:00,
2013-11-02 17:32:00,55.8,54.7,29.62,SSE,160,2.5,2.5,96,0.00,,BKN240,0.00,VWS V14.01,2013-11-02 21:32:00,
2013-11-02 17:38:00,55.5,54.5,29.62,SSE,160,2.5,2.5,96,0.00,,BKN240,0.00,VWS V14.01,2013-11-02 21:38:00,
2013-11-02 17:44:00,55.0,54.2,29.63,SSE,160,2.5,2.5,97,0.00,,BKN240,0.00,VWS V14.01,2013-11-02 21:44:00,
2013-11-02 17:49:00,54.8,53.9,29.63,SSE,160,2.5,2.5,97,0.00,,BKN240,0.00,VWS V14.01,2013-11-02 21:49:00,
2013-11-02 17:55:00,54.7,54.0,29.62,SSE,160,2.5,2.5,98,0.00,,BKN240,0.00,VWS V14.01,2013-11-02 21:55:00,
2013-11-02 18:01:00,54.6,54.0,29.62,SSE,160,2.5,2.5,98,0.00,,BKN250,0.00,VWS V14.01,2013-11-02 22:01:00,
2013-11-02 18:08:00,54.1,53.7,29.62,SSE,160,2.5,2.5,98,0.00,,BKN250,0.00,VWS V14.01,2013-11-02 22:08:00,
2013-11-02 18:14:00,54.0,53.8,29.63,SSE,160,2.5,2.5,99,0.00,,BKN250,0.00,VWS V14.01,2013-11-02 22:14:00,
2013-11-02 18:20:00,53.9,53.7,29.63,SSE,160,2.5,2.5,99,0.00,,BKN250,0.00,VWS V14.01,2013-11-02 22:20:00,
2013-11-02 18:25:00,53.6,53.4,29.64,SSE,160,2.5,2.5,99,0.00,,BKN250,0.00,VWS V14.01,2013-11-02 22:25:00,
2013-11-02 18:31:00,53.7,53.5,29.64,SSE,160,2.5,2.5,99,0.00,,BKN250,0.00,VWS V14.01,2013-11-02 22:31:00,
2013-11-02 18:38:00,53.6,53.4,29.64,WSW,245,2.5,3.5,99,0.00,,BKN250,0.00,VWS V14.01,2013-11-02 22:38:00,
2013-11-02 18:44:00,53.5,53.3,29.65,WSW,245,2.5,2.5,99,0.00,,BKN250,0.00,VWS V14.01,2013-11-02 22:44:00,
2013-11-02 18:50:00,53.6,53.4,29.65,NW,304,4.1,4.1,99,0.00,,BKN250,0.00,VWS V14.01,2013-11-02 22:50:00,
2013-11-02 18:55:00,54.1,53.7,29.65,SSW,197,2.5,3.2,99,0.00,,BKN250,0.00,VWS V14.01,2013-11-02 22:55:00,
2013-11-02 19:01:00,54.0,53.8,29.66,SSW,197,2.5,2.5,99,0.00,,BKN250,0.00,VWS V14.01,2013-11-02 23:01:00,
2013-11-02 19:07:00,53.7,53.7,29.66,WSW,245,2.5,3.1,100,0.00,,BKN250,0.00,VWS V14.01,2013-11-02 23:07:00,
2013-11-02 19:14:00,53.5,53.5,29.66,WSW,245,2.5,2.5,100,0.00,,BKN250,0.00,VWS V14.01,2013-11-02 23:14:00,
2013-11-02 19:20:00,53.4,53.4,29.66,WSW,245,2.5,2.5,100,0.00,,BKN250,0.00,VWS V14.01,2013-11-02 23:20:00,
2013-11-02 19:25:00,53.1,53.1,29.66,WSW,245,2.5,2.5,100,0.00,,BKN250,0.00,VWS V14.01,2013-11-02 23:25:00,
2013-11-02 19:31:00,52.5,52.5,29.67,WSW,245,2.5,2.5,100,0.00,,BKN250,0.00,VWS V14.01,2013-11-02 23:31:00,
2013-11-02 19:37:00,51.9,51.9,29.68,WSW,245,2.5,2.5,100,0.00,,BKN250,0.00,VWS V14.01,2013-11-02 23:37:00,
2013-11-02 19:44:00,52.2,52.2,29.68,WSW,245,2.5,2.5,100,0.00,,BKN250,0.00,VWS V14.01,2013-11-02 23:44:00,
2013-11-02 19:50:00,52.4,52.4,29.68,WSW,245,2.5,2.5,100,0.00,,BKN250,0.00,VWS V14.01,2013-11-02 23:50:00,
2013-11-02 19:55:00,52.9,52.9,29.68,WSW,245,2.5,3.4,100,0.00,,BKN250,0.00,VWS V14.01,2013-11-02 23:55:00,
2013-11-02 20:01:00,52.7,52.7,29.68,WSW,245,2.5,2.5,100,0.00,,OVC250,0.00,VWS V14.01,2013-11-03 00:01:00,
2013-11-02 20:07:00,52.8,52.8,29.68,WSW,245,2.5,2.5,100,0.00,,OVC250,0.00,VWS V14.01,2013-11-03 00:07:00,
2013-11-02 20:14:00,52.9,52.9,29.69,WSW,245,2.5,2.5,100,0.00,,OVC250,0.00,VWS V14.01,2013-11-03 00:14:00,
2013-11-02 20:20:00,52.8,52.8,29.69,WSW,245,2.5,2.5,100,0.00,,OVC250,0.00,VWS V14.01,2013-11-03 00:20:00,
2013-11-02 20:26:00,52.5,52.5,29.69,WSW,245,2.5,2.5,100,0.00,,OVC250,0.00,VWS V14.01,2013-11-03 00:26:00,
2013-11-02 20:31:00,52.4,52.4,29.67,WSW,245,2.5,2.5,100,0.00,,OVC250,0.00,VWS V14.01,2013-11-03 00:31:00,
2013-11-02 20:37:00,52.2,52.2,29.68,WSW,245,2.5,2.5,100,0.00,,OVC250,0.00,VWS V14.01,2013-11-03 00:37:00,
2013-11-02 20:43:00,52.0,52.0,29.69,WSW,245,2.5,2.5,100,0.00,,OVC250,0.00,VWS V14.01,2013-11-03 00:43:00,
2013-11-02 20:50:00,51.8,51.8,29.68,WSW,245,2.5,2.5,100,0.00,,OVC250,0.00,VWS V14.01,2013-11-03 00:50:00,
2013-11-02 20:56:00,51.3,51.3,29.68,WSW,245,2.5,2.5,100,0.00,,OVC250,0.00,VWS V14.01,2013-11-03 00:56:00,
2013-11-02 21:01:00,51.1,51.1,29.68,WSW,245,2.5,2.5,100,0.00,,OVC170,0.00,VWS V14.01,2013-11-03 01:01:00,
2013-11-02 21:07:00,51.2,51.2,29.69,WSW,245,2.5,2.5,100,0.00,,OVC170,0.00,VWS V14.01,2013-11-03 01:07:00,
2013-11-02 21:13:00,51.4,51.4,29.69,WSW,245,2.5,2.5,100,0.00,,OVC170,0.00,VWS V14.01,2013-11-03 01:13:00,
2013-11-02 21:20:00,51.3,51.3,29.69,WSW,245,2.5,2.5,100,0.00,,OVC170,0.00,VWS V14.01,2013-11-03 01:20:00,
2013-11-02 21:26:00,51.3,51.3,29.69,WSW,245,2.5,2.5,100,0.00,,OVC170,0.00,VWS V14.01,2013-11-03 01:26:00,
2013-11-02 21:31:00,51.1,51.1,29.69,WSW,245,2.5,2.5,100,0.00,,OVC170,0.00,VWS V14.01,2013-11-03 01:31:00,
2013-11-02 21:37:00,51.1,51.1,29.69,WSW,245,2.5,2.5,100,0.00,,OVC170,0.00,VWS V14.01,2013-11-03 01:37:00,
2013-11-02 21:43:00,51.0,51.0,29.70,WSW,245,2.5,2.5,100,0.00,,OVC170,0.00,VWS V14.01,2013-11-03 01:43:00,
2013-11-02 21:49:00,51.2,51.2,29.71,WSW,245,2.5,2.5,100,0.00,,OVC170,0.00,VWS V14.01,2013-11-03 01:49:00,
2013-11-02 21:56:00,51.4,51.4,29.71,WSW,245,2.5,2.5,100,0.00,,OVC170,0.00,VWS V14.01,2013-11-03 01:56:00,
2013-11-02 22:01:00,50.7,50.7,29.71,SW,224,2.5,2.5,100,0.00,,OVC090,0.00,VWS V14.01,2013-11-03 02:01:00,
2013-11-02 22:07:00,51.2,51.2,29.72,SW,224,2.5,2.5,100,0.00,,OVC090,0.00,VWS V14.01,2013-11-03 02:07:00,
2013-11-02 22:13:00,50.9,50.9,29.72,West,259,2.5,2.5,100,0.00,,OVC090,0.00,VWS V14.01,2013-11-03 02:13:00,
2013-11-02 22:19:00,50.8,50.8,29.72,West,259,2.5,2.5,100,0.00,,OVC090,0.00,VWS V14.01,2013-11-03 02:19:00,
2013-11-02 22:26:00,50.7,50.7,29.72,West,259,2.5,2.5,100,0.00,,OVC090,0.00,VWS V14.01,2013-11-03 02:26:00,
2013-11-02 22:31:00,51.1,51.1,29.72,NNW,338,3.2,6.2,100,0.00,,OVC090,0.00,VWS V14.01,2013-11-03 02:31:00,
2013-11-02 22:38:00,51.3,51.3,29.72,NNW,338,2.5,2.5,100,0.00,,OVC090,0.00,VWS V14.01,2013-11-03 02:38:00,
2013-11-02 22:44:00,52.2,52.0,29.71,North,357,4.6,8.0,99,0.00,,OVC090,0.00,VWS V14.01,2013-11-03 02:44:00,
2013-11-02 22:49:00,52.3,52.0,29.71,NE,41,4.8,5.4,99,0.00,,OVC090,0.00,VWS V14.01,2013-11-03 02:49:00,
2013-11-02 22:55:00,52.7,52.0,29.71,NNE,24,5.1,6.7,97,0.00,,OVC090,0.00,VWS V14.01,2013-11-03 02:55:00,
2013-11-02 23:02:00,52.6,51.9,29.71,North,11,2.5,4.7,98,0.00,,OVC090,0.00,VWS V14.01,2013-11-03 03:02:00,
2013-11-02 23:07:00,52.7,51.9,29.72,NNE,13,4.1,8.8,97,0.00,,OVC090,0.00,VWS V14.01,2013-11-03 03:07:00,
2013-11-02 23:13:00,52.7,51.9,29.72,NE,37,2.5,7.4,97,0.00,,OVC090,0.00,VWS V14.01,2013-11-03 03:13:00,
2013-11-02 23:19:00,52.4,51.8,29.72,North,11,2.5,5.6,98,0.00,,OVC090,0.00,VWS V14.01,2013-11-03 03:19:00,
2013-11-02 23:25:00,52.4,51.6,29.72,North,1,2.5,2.5,97,0.00,,OVC090,0.00,VWS V14.01,2013-11-03 03:25:00,
2013-11-02 23:32:00,52.5,51.5,29.73,North,1,2.5,2.5,96,0.00,,OVC090,0.00,VWS V14.01,2013-11-03 03:32:00,
2013-11-02 23:37:00,52.5,51.3,29.73,NE,41,2.5,2.5,96,0.00,,OVC090,0.00,VWS V14.01,2013-11-03 03:37:00,
2013-11-02 23:43:00,52.3,51.2,29.73,North,3,4.9,6.5,96,0.00,,OVC090,0.00,VWS V14.01,2013-11-03 03:43:00,
2013-11-02 23:49:00,52.3,51.2,29.73,North,349,7.9,8.7,96,0.00,,OVC090,0.00,VWS V14.01,2013-11-03 03:49:00,
2013-11-02 23:55:00,52.4,51.3,29.73,NNW,340,2.5,3.9,96,0.00,,OVC090,0.00,VWS V14.01,2013-11-03 03:55:00,